createdAt,value
2022-11-12T00:00:24.243Z,15.02
2022-11-12T00:03:10.187Z,17.83
2022-11-12T00:05:55.890Z,15.85
2022-11-12T00:08:41.572Z,14.77
2022-11-12T00:11:27.343Z,15.23
2022-11-12T00:14:13.014Z,14.85
2022-11-12T00:16:59.836Z,16.92
2022-11-12T00:19:45.711Z,15.98
2022-11-12T00:22:31.477Z,16.87
2022-11-12T00:25:17.413Z,16.60
2022-11-12T00:28:07.464Z,16.42
2022-11-12T00:30:53.136Z,17.37
2022-11-12T00:33:40.578Z,16.48
2022-11-12T00:36:26.445Z,16.77
2022-11-12T00:39:12.094Z,18.37
2022-11-12T00:41:57.839Z,16.37
2022-11-12T00:44:43.538Z,17.58
2022-11-12T00:47:29.515Z,15.13
2022-11-12T00:50:16.211Z,16.73
2022-11-12T00:53:01.958Z,16.52
2022-11-12T00:55:47.753Z,18.48
2022-11-12T00:58:34.942Z,18.05
2022-11-12T01:01:21.059Z,16.83
2022-11-12T01:04:07.166Z,16.75
2022-11-12T01:06:52.808Z,16.95
2022-11-12T01:09:39.761Z,16.65
2022-11-12T01:12:25.870Z,16.50
2022-11-12T01:15:11.519Z,16.77
2022-11-12T01:17:57.124Z,17.80
2022-11-12T01:20:42.766Z,17.73
2022-11-12T01:23:28.459Z,18.37
2022-11-12T01:26:16.171Z,17.40
2022-11-12T01:29:01.817Z,16.77
2022-11-12T01:31:47.590Z,18.02
2022-11-12T01:34:33.576Z,17.83
2022-11-12T01:37:19.303Z,16.52
2022-11-12T01:40:05.458Z,18.10
2022-11-12T01:42:52.540Z,18.77
2022-11-12T01:45:40.207Z,18.45
2022-11-12T01:48:34.161Z,19.02
2022-11-12T01:51:21.277Z,18.37
2022-11-12T01:54:08.612Z,19.48
2022-11-12T01:56:54.539Z,18.87
2022-11-12T01:59:44.542Z,17.00
2022-11-12T02:02:31.628Z,19.67
2022-11-12T02:05:17.442Z,18.52
2022-11-12T02:08:03.569Z,16.87
2022-11-12T02:10:50.232Z,17.87
2022-11-12T02:13:54.588Z,18.10
2022-11-12T02:16:41.481Z,17.95
2022-11-12T02:19:27.423Z,17.45
2022-11-12T02:22:13.145Z,16.85
2022-11-12T02:24:58.815Z,19.08
2022-11-12T02:27:44.677Z,17.85
2022-11-12T02:30:35.560Z,18.70
2022-11-12T02:33:21.501Z,19.95
2022-11-12T02:36:07.330Z,19.67
2022-11-12T02:38:53.079Z,19.17
2022-11-12T02:41:38.586Z,19.80
2022-11-12T02:44:24.260Z,19.20
2022-11-12T02:47:09.940Z,19.77
2022-11-12T02:49:55.597Z,20.45
2022-11-12T02:52:41.311Z,18.83
2022-11-12T02:55:27.035Z,18.55
2022-11-12T02:58:12.756Z,18.33
2022-11-12T03:00:58.473Z,19.80
2022-11-12T03:03:43.992Z,21.77
2022-11-12T03:06:29.642Z,18.85
2022-11-12T03:09:15.275Z,18.92
2022-11-12T03:12:01.136Z,19.45
2022-11-12T03:14:46.955Z,18.00
2022-11-12T03:17:34.655Z,17.98
2022-11-12T03:20:20.584Z,18.05
2022-11-12T03:23:08.157Z,18.25
2022-11-12T03:25:53.765Z,21.48
2022-11-12T03:28:39.348Z,19.10
2022-11-12T03:31:25.072Z,19.42
2022-11-12T03:34:11.168Z,18.05
2022-11-12T03:39:42.817Z,19.00
2022-11-12T03:42:28.578Z,20.73
2022-11-12T03:45:14.847Z,20.17
2022-11-12T03:50:46.459Z,20.52
2022-11-12T03:53:32.168Z,21.42
2022-11-12T03:56:17.952Z,22.73
2022-11-12T03:59:03.633Z,21.25
2022-11-12T04:01:49.300Z,15.93
2022-11-12T04:04:54.126Z,21.75
2022-11-12T04:07:59.116Z,21.45
2022-11-12T04:10:45.036Z,19.40
2022-11-12T04:13:30.786Z,19.52
2022-11-12T04:16:37.412Z,19.35
2022-11-12T04:19:42.245Z,20.75
2022-11-12T04:22:28.187Z,20.65
2022-11-12T04:25:32.829Z,21.40
2022-11-12T04:28:18.915Z,21.93
2022-11-12T04:31:04.520Z,19.83
2022-11-12T04:33:50.187Z,20.33
2022-11-12T04:36:35.943Z,24.65
2022-11-12T04:39:21.509Z,20.45
2022-11-12T04:42:27.623Z,21.00
2022-11-12T04:45:13.585Z,23.90
2022-11-12T04:47:59.339Z,22.25
2022-11-12T04:50:45.785Z,21.73
2022-11-12T04:53:31.760Z,21.73
2022-11-12T04:56:17.357Z,22.15
2022-11-12T04:59:03.084Z,22.92
2022-11-12T05:01:48.683Z,23.75
2022-11-12T05:04:34.262Z,24.65
2022-11-12T05:07:20.290Z,23.60
2022-11-12T05:10:06.647Z,24.85
2022-11-12T05:15:38.167Z,22.35
2022-11-12T05:18:24.042Z,21.52
2022-11-12T05:21:28.779Z,21.83
2022-11-12T05:24:34.004Z,19.85
2022-11-12T05:27:20.969Z,21.80
2022-11-12T05:31:20.355Z,18.58
2022-11-12T05:34:06.516Z,20.30
2022-11-12T05:36:52.404Z,20.80
2022-11-12T05:39:37.943Z,19.65
2022-11-12T05:42:23.780Z,19.02
2022-11-12T05:45:09.589Z,19.23
2022-11-12T05:47:55.268Z,20.23
2022-11-12T05:50:58.581Z,20.33
2022-11-12T05:53:46.739Z,19.05
2022-11-12T05:56:32.473Z,18.25
2022-11-12T05:59:18.266Z,18.15
2022-11-12T06:02:03.928Z,17.20
2022-11-12T06:07:36.051Z,18.10
2022-11-12T06:10:21.576Z,19.02
2022-11-12T06:13:07.388Z,18.17
2022-11-12T06:15:53.502Z,19.12
2022-11-12T06:21:27.559Z,18.35
2022-11-12T06:24:13.227Z,17.37
2022-11-12T06:26:59.103Z,19.52
2022-11-12T06:29:44.800Z,17.85
2022-11-12T06:32:30.475Z,17.55
2022-11-12T06:35:16.605Z,18.92
2022-11-12T06:40:48.220Z,18.23
2022-11-12T06:43:34.224Z,20.45
2022-11-12T06:46:20.155Z,22.17
2022-11-12T06:49:06.226Z,23.62
2022-11-12T06:51:52.028Z,22.62
2022-11-12T06:54:37.615Z,24.48
2022-11-12T06:57:23.348Z,22.65
2022-11-12T07:00:11.716Z,23.87
2022-11-12T07:02:57.534Z,24.30
2022-11-12T07:05:43.875Z,23.23
2022-11-12T07:08:29.812Z,22.13
2022-11-12T07:11:16.326Z,21.33
2022-11-12T07:14:02.206Z,21.52
2022-11-12T07:16:47.826Z,23.02
2022-11-12T07:19:33.626Z,22.62
2022-11-12T07:22:19.275Z,22.87
2022-11-12T07:25:05.423Z,22.65
2022-11-12T07:27:52.689Z,22.25
2022-11-12T07:30:38.296Z,22.95
2022-11-12T07:33:24.232Z,22.17
2022-11-12T07:36:11.987Z,22.67
2022-11-12T07:38:58.060Z,22.60
2022-11-12T07:41:43.850Z,21.45
2022-11-12T07:44:29.510Z,21.45
2022-11-12T07:47:15.164Z,21.83
2022-11-12T07:50:00.941Z,22.75
2022-11-12T07:52:46.485Z,22.52
2022-11-12T07:55:32.144Z,22.50
2022-11-12T07:58:17.933Z,23.45
2022-11-12T08:01:28.376Z,24.23
2022-11-12T08:04:14.117Z,22.40
2022-11-12T08:06:59.894Z,23.77
2022-11-12T08:09:46.060Z,22.33
2022-11-12T08:12:31.573Z,22.48
2022-11-12T08:15:17.340Z,28.35
2022-11-12T08:18:03.086Z,24.15
2022-11-12T08:20:48.617Z,24.25
2022-11-12T08:23:34.480Z,25.52
2022-11-12T08:26:20.256Z,26.62
2022-11-12T08:29:08.500Z,26.10
2022-11-12T08:31:54.933Z,22.98
2022-11-12T08:34:41.446Z,21.62
2022-11-12T08:37:27.273Z,23.87
2022-11-12T08:40:13.144Z,23.55
2022-11-12T08:43:06.137Z,22.60
2022-11-12T08:45:52.023Z,24.92
2022-11-12T08:48:39.925Z,25.05
2022-11-12T08:51:25.756Z,25.40
2022-11-12T08:54:11.343Z,23.92
2022-11-12T08:56:57.031Z,22.48
2022-11-12T08:59:42.801Z,23.92
2022-11-12T09:02:28.441Z,22.23
2022-11-12T09:05:14.180Z,23.77
2022-11-12T09:08:10.493Z,23.98
2022-11-12T09:10:57.784Z,24.77
2022-11-12T09:13:43.600Z,25.37
2022-11-12T09:16:29.254Z,25.00
2022-11-12T09:19:15.086Z,25.35
2022-11-12T09:22:00.711Z,24.33
2022-11-12T09:24:46.348Z,22.05
2022-11-12T09:27:31.973Z,24.75
2022-11-12T09:30:17.739Z,23.48
2022-11-12T09:33:03.471Z,25.40
2022-11-12T09:35:49.255Z,24.87
2022-11-12T09:38:35.100Z,26.00
2022-11-12T09:41:24.215Z,23.87
2022-11-12T09:44:17.488Z,25.23
2022-11-12T09:47:12.543Z,24.50
2022-11-12T09:50:01.401Z,24.53
2022-11-12T09:52:48.363Z,24.27
2022-11-12T09:55:46.008Z,24.35
2022-11-12T09:58:31.973Z,25.08
2022-11-12T10:01:39.142Z,23.90
2022-11-12T10:04:46.990Z,24.40
2022-11-12T10:07:40.550Z,23.90
2022-11-12T10:10:42.169Z,24.85
2022-11-12T10:13:59.073Z,26.27
2022-11-12T10:17:08.740Z,24.60
2022-11-12T10:20:50.273Z,27.77
2022-11-12T10:23:46.203Z,24.35
2022-11-12T10:26:31.965Z,25.92
2022-11-12T10:29:40.053Z,25.75
2022-11-12T10:32:25.846Z,24.15
2022-11-12T10:35:13.244Z,26.42
2022-11-12T10:38:04.357Z,26.65
2022-11-12T10:40:50.089Z,23.70
2022-11-12T10:43:36.152Z,25.50
2022-11-12T10:46:23.660Z,23.55
2022-11-12T10:49:15.942Z,23.73
2022-11-12T10:52:01.858Z,23.77
2022-11-12T10:54:52.351Z,25.20
2022-11-12T10:57:40.720Z,23.50
2022-11-12T11:00:26.653Z,22.52
2022-11-12T11:03:17.014Z,24.02
2022-11-12T11:06:07.772Z,30.95
2022-11-12T11:08:54.799Z,24.70
2022-11-12T11:11:54.051Z,24.50
2022-11-12T11:14:40.687Z,23.80
2022-11-12T11:17:26.523Z,24.27
2022-11-12T11:20:28.907Z,24.80
2022-11-12T11:23:46.031Z,24.73
2022-11-12T11:26:49.088Z,23.92
2022-11-12T11:29:37.992Z,22.42
2022-11-12T11:32:51.595Z,21.40
2022-11-12T11:35:43.311Z,23.12
2022-11-12T11:38:35.948Z,23.60
2022-11-12T11:41:30.442Z,24.33
2022-11-12T11:44:22.194Z,23.67
2022-11-12T11:47:13.248Z,24.50
2022-11-12T11:50:27.637Z,21.67
2022-11-12T11:53:20.886Z,23.83
2022-11-12T11:56:13.126Z,22.17
2022-11-12T11:59:14.121Z,21.48
2022-11-12T12:02:05.428Z,22.50
2022-11-12T12:05:01.003Z,21.10
2022-11-12T12:11:07.373Z,20.25
2022-11-12T12:14:06.172Z,19.50
2022-11-12T12:17:19.237Z,20.40
2022-11-12T12:20:35.042Z,19.95
2022-11-12T12:23:33.792Z,21.87
2022-11-12T12:26:27.797Z,22.77
2022-11-12T12:29:25.809Z,21.27
2022-11-12T12:32:17.468Z,21.52
2022-11-12T12:35:33.135Z,21.92
2022-11-12T12:38:27.418Z,21.20
2022-11-12T12:41:34.951Z,25.77
2022-11-12T12:44:20.600Z,25.65
2022-11-12T12:47:06.395Z,25.67
2022-11-12T12:49:52.107Z,24.77
2022-11-12T12:53:15.133Z,23.87
2022-11-12T12:56:05.787Z,22.58
2022-11-12T12:58:51.798Z,21.77
2022-11-12T13:01:38.014Z,23.92
2022-11-12T13:04:57.884Z,23.45
2022-11-12T13:07:45.255Z,24.75
2022-11-12T13:10:37.129Z,22.87
2022-11-12T13:13:32.137Z,24.10
2022-11-12T13:16:51.087Z,24.17
2022-11-12T13:19:58.197Z,23.17
2022-11-12T13:22:43.880Z,22.65
2022-11-12T13:25:31.041Z,25.20
2022-11-12T13:28:17.112Z,26.08
2022-11-12T13:31:03.417Z,25.85
2022-11-12T13:33:49.049Z,26.45
2022-11-12T13:39:20.537Z,25.40
2022-11-12T13:42:32.167Z,25.40
2022-11-12T13:45:22.227Z,25.77
2022-11-12T13:48:08.960Z,24.37
2022-11-12T13:50:57.295Z,23.23
2022-11-12T13:53:43.253Z,23.10
2022-11-12T13:56:33.607Z,22.27
2022-11-12T13:59:24.147Z,21.50
2022-11-12T14:02:26.476Z,19.90
2022-11-12T14:05:16.982Z,22.05
2022-11-12T14:08:14.982Z,23.75
2022-11-12T14:11:07.767Z,21.90
2022-11-12T14:14:01.833Z,21.50
2022-11-12T14:17:22.125Z,22.75
2022-11-12T14:20:07.956Z,22.10
2022-11-12T14:22:54.474Z,22.27
2022-11-12T14:25:50.802Z,19.30
2022-11-12T14:28:36.894Z,19.80
2022-11-12T14:31:24.624Z,18.75
2022-11-12T14:34:26.981Z,17.95
2022-11-12T14:37:31.009Z,18.30
2022-11-12T14:40:20.258Z,19.50
2022-11-12T14:43:06.180Z,17.70
2022-11-12T14:45:52.784Z,17.48
2022-11-12T14:48:48.287Z,17.70
2022-11-12T14:51:38.768Z,18.15
2022-11-12T14:54:28.951Z,16.73
2022-11-12T14:57:19.057Z,18.62
2022-11-12T15:00:32.902Z,18.30
2022-11-12T15:03:21.015Z,17.35
2022-11-12T15:06:06.544Z,20.15
2022-11-12T15:08:58.877Z,20.88
2022-11-12T15:11:47.737Z,21.45
2022-11-12T15:14:33.657Z,20.80
2022-11-12T15:17:27.191Z,22.73
2022-11-12T15:20:14.424Z,22.23
2022-11-12T15:23:00.179Z,21.98
2022-11-12T15:25:46.281Z,21.55
2022-11-12T15:28:32.190Z,22.55
2022-11-12T15:31:20.194Z,23.55
2022-11-12T15:34:28.884Z,25.70
2022-11-12T15:37:17.249Z,23.30
2022-11-12T15:40:07.070Z,22.37
2022-11-12T15:42:52.798Z,23.98
2022-11-12T15:45:38.720Z,24.75
2022-11-12T15:51:10.884Z,27.85
2022-11-12T15:56:43.086Z,25.05
2022-11-12T15:59:28.831Z,27.23
2022-11-12T16:02:15.673Z,24.87
2022-11-12T16:05:01.491Z,28.65
2022-11-12T16:07:47.630Z,26.20
2022-11-12T16:16:15.566Z,24.77
2022-11-12T16:21:46.898Z,23.87
2022-11-12T16:24:32.615Z,24.83
2022-11-12T16:27:20.454Z,25.27
2022-11-12T16:30:12.857Z,26.12
2022-11-12T16:32:58.846Z,47.10
2022-11-12T16:35:44.687Z,31.60
2022-11-12T16:38:30.273Z,51.70
2022-11-12T16:41:16.341Z,48.90
2022-11-12T16:44:02.101Z,36.20
2022-11-12T16:46:47.805Z,43.53
2022-11-12T16:49:38.408Z,46.75
2022-11-12T16:52:25.892Z,40.47
2022-11-12T16:55:11.596Z,40.05
2022-11-12T16:57:57.249Z,39.08
2022-11-12T17:00:44.512Z,38.00
2022-11-12T17:03:30.449Z,38.88
2022-11-12T17:09:03.882Z,38.05
2022-11-12T17:11:49.565Z,36.65
2022-11-12T17:14:35.694Z,37.65
2022-11-12T17:20:07.456Z,34.50
2022-11-12T17:25:38.728Z,36.92
2022-11-12T17:28:24.525Z,32.67
2022-11-12T17:31:15.791Z,35.50
2022-11-12T17:34:04.440Z,35.78
2022-11-12T17:36:50.204Z,36.55
2022-11-12T17:39:35.894Z,38.03
2022-11-12T17:42:21.704Z,31.23
2022-11-12T17:45:07.767Z,39.92
2022-11-12T17:47:53.862Z,35.75
2022-11-12T17:50:39.611Z,34.30
2022-11-12T17:53:25.606Z,37.38
2022-11-12T17:58:58.049Z,33.58
2022-11-12T18:01:43.922Z,33.78
2022-11-12T18:04:31.147Z,32.25
2022-11-12T18:07:16.948Z,32.72
2022-11-12T18:10:02.615Z,35.47
2022-11-12T18:12:48.383Z,35.00
2022-11-12T18:15:34.141Z,35.97
2022-11-12T18:18:19.977Z,36.38
2022-11-12T18:21:05.645Z,38.00
2022-11-12T18:23:51.396Z,32.63
2022-11-12T18:26:37.054Z,35.30
2022-11-12T18:29:22.799Z,34.55
2022-11-12T18:32:08.551Z,33.03
2022-11-12T18:34:54.360Z,33.50
2022-11-12T18:37:40.218Z,34.25
2022-11-12T18:40:26.029Z,33.55
2022-11-12T18:43:11.659Z,34.42
2022-11-12T18:46:00.424Z,44.70
2022-11-12T18:48:47.343Z,42.17
2022-11-12T18:51:33.029Z,43.67
2022-11-12T18:54:18.743Z,44.03
2022-11-12T18:57:04.397Z,52.15
2022-11-12T18:59:52.647Z,44.90
2022-11-12T19:02:38.780Z,49.75
2022-11-12T19:05:24.543Z,42.95
2022-11-12T19:08:10.396Z,40.20
2022-11-12T19:11:21.741Z,41.67
2022-11-12T19:14:07.767Z,40.28
2022-11-12T19:19:39.565Z,46.53
2022-11-12T19:22:25.305Z,48.03
2022-11-12T19:25:10.902Z,44.55
2022-11-12T19:27:56.440Z,56.03
2022-11-12T19:30:42.177Z,50.35
2022-11-12T19:33:27.808Z,52.08
2022-11-12T19:36:21.933Z,52.97
2022-11-12T19:39:07.980Z,46.37
2022-11-12T19:41:53.557Z,49.35
2022-11-12T19:44:39.112Z,51.75
2022-11-12T19:47:24.592Z,51.03
2022-11-12T19:50:10.315Z,50.38
2022-11-12T19:52:56.561Z,46.58
2022-11-12T19:58:28.517Z,46.53
2022-11-12T20:01:16.297Z,46.72
2022-11-12T20:04:02.297Z,46.42
2022-11-12T20:06:47.868Z,48.03
2022-11-12T20:12:19.880Z,45.38
2022-11-12T20:15:06.355Z,47.67
2022-11-12T20:17:52.431Z,50.05
2022-11-12T20:20:38.043Z,49.75
2022-11-12T20:23:24.114Z,48.50
2022-11-12T20:26:11.253Z,52.13
2022-11-12T20:28:56.921Z,50.42
2022-11-12T20:31:42.637Z,51.75
2022-11-12T20:34:28.307Z,61.63
2022-11-12T20:37:14.076Z,57.95
2022-11-12T20:40:00.139Z,53.90
2022-11-12T20:42:50.640Z,50.80
2022-11-12T20:45:36.511Z,54.35
2022-11-12T20:48:22.488Z,50.88
2022-11-12T20:51:23.679Z,51.33
2022-11-12T20:54:10.621Z,52.15
2022-11-12T20:56:56.311Z,50.15
2022-11-12T20:59:41.987Z,49.95
2022-11-12T21:02:27.634Z,47.50
2022-11-12T21:05:13.476Z,48.95
2022-11-12T21:07:59.082Z,49.58
2022-11-12T21:10:48.909Z,44.30
2022-11-12T21:13:35.511Z,44.60
2022-11-12T21:16:21.408Z,44.60
2022-11-12T21:19:07.108Z,45.78
2022-11-12T21:21:53.337Z,44.35
2022-11-12T21:24:39.106Z,45.53
2022-11-12T21:27:25.175Z,44.90
2022-11-12T21:30:11.224Z,45.22
2022-11-12T21:32:57.065Z,42.28
2022-11-12T21:35:43.077Z,43.87
2022-11-12T21:38:29.564Z,45.65
2022-11-12T21:41:17.565Z,46.03
2022-11-12T21:44:03.558Z,43.35
2022-11-12T21:46:49.417Z,43.70
2022-11-12T21:49:35.386Z,44.63
2022-11-12T21:52:21.113Z,44.92
2022-11-12T21:55:07.484Z,41.17
2022-11-12T22:00:41.888Z,46.22
2022-11-12T22:03:31.216Z,40.10
2022-11-12T22:06:17.254Z,44.63
2022-11-12T22:09:03.262Z,45.05
2022-11-12T22:11:48.905Z,43.28
2022-11-12T22:14:34.705Z,42.85
2022-11-12T22:17:20.623Z,42.85
2022-11-12T22:20:06.868Z,43.28
2022-11-12T22:22:52.594Z,40.03
2022-11-12T22:25:38.302Z,40.85
2022-11-12T22:28:24.266Z,39.42
2022-11-12T22:31:14.975Z,39.50
2022-11-12T22:34:01.545Z,39.03
2022-11-12T22:36:47.456Z,40.60
2022-11-12T22:39:33.311Z,40.70
2022-11-12T22:42:18.979Z,39.80
2022-11-12T22:45:04.926Z,41.33
2022-11-12T22:50:36.689Z,38.67
2022-11-12T22:53:22.429Z,39.33
2022-11-12T22:56:10.269Z,39.28
2022-11-12T22:58:56.269Z,39.42
2022-11-12T23:04:28.241Z,37.97
2022-11-12T23:07:14.011Z,36.70
2022-11-12T23:09:59.739Z,36.55
2022-11-12T23:12:45.343Z,35.17
2022-11-12T23:15:31.405Z,38.92
2022-11-12T23:18:17.318Z,38.90
2022-11-12T23:21:07.857Z,37.67
2022-11-12T23:23:53.695Z,36.92
2022-11-12T23:26:39.554Z,39.72
2022-11-12T23:29:25.156Z,36.38
2022-11-12T23:32:10.839Z,36.72
2022-11-12T23:34:56.485Z,36.38
2022-11-12T23:37:42.300Z,36.55
2022-11-12T23:40:31.072Z,37.80
2022-11-12T23:43:17.479Z,35.97
2022-11-12T23:46:03.248Z,37.75
2022-11-12T23:48:49.443Z,36.67
2022-11-12T23:51:35.369Z,37.63
2022-11-12T23:54:21.011Z,34.70
2022-11-12T23:57:06.838Z,35.35
2022-11-12T23:59:52.528Z,36.10
